createdAt,value
2017-11-24T00:02:14.883Z,6.60
2017-11-24T00:04:40.831Z,7.43
2017-11-24T00:07:06.784Z,7.00
2017-11-24T00:09:32.711Z,6.73
2017-11-24T00:11:58.671Z,7.50
2017-11-24T00:14:24.602Z,7.13
2017-11-24T00:16:50.528Z,7.00
2017-11-24T00:19:16.495Z,7.07
2017-11-24T00:21:42.518Z,7.00
2017-11-24T00:24:08.429Z,7.20
2017-11-24T00:26:34.340Z,7.23
2017-11-24T00:29:01.012Z,7.20
2017-11-24T00:31:26.998Z,7.17
2017-11-24T00:33:53.734Z,6.90
2017-11-24T00:36:19.722Z,6.83
2017-11-24T00:38:45.636Z,6.57
2017-11-24T00:41:11.605Z,6.80
2017-11-24T00:43:37.523Z,6.57
2017-11-24T00:46:04.190Z,6.50
2017-11-24T00:48:30.128Z,7.30
2017-11-24T00:50:56.085Z,7.17
2017-11-24T00:53:22.028Z,8.10
2017-11-24T00:55:47.996Z,7.50
2017-11-24T00:58:13.940Z,7.40
2017-11-24T01:00:39.863Z,6.40
2017-11-24T01:03:05.832Z,7.90
2017-11-24T01:05:31.775Z,8.10
2017-11-24T01:07:58.779Z,7.57
2017-11-24T01:10:24.774Z,7.20
2017-11-24T01:12:50.704Z,8.00
2017-11-24T01:15:17.376Z,6.70
2017-11-24T01:17:43.412Z,7.33
2017-11-24T01:20:09.342Z,7.23
2017-11-24T01:22:35.269Z,7.83
2017-11-24T01:25:01.177Z,7.03
2017-11-24T01:27:27.168Z,7.50
2017-11-24T01:29:53.057Z,7.50
2017-11-24T01:32:18.991Z,7.83
2017-11-24T01:34:45.661Z,7.80
2017-11-24T01:37:11.598Z,7.50
2017-11-24T01:39:37.574Z,7.60
2017-11-24T01:42:04.262Z,8.00
2017-11-24T01:44:30.177Z,7.90
2017-11-24T01:46:56.141Z,8.03
2017-11-24T01:49:22.811Z,7.60
2017-11-24T01:51:48.773Z,8.20
2017-11-24T01:54:14.724Z,7.90
2017-11-24T01:56:41.448Z,7.30
2017-11-24T01:59:07.401Z,7.40
2017-11-24T02:01:33.304Z,7.23
2017-11-24T02:03:59.240Z,7.30
2017-11-24T02:06:25.909Z,7.80
2017-11-24T02:08:52.648Z,7.40
2017-11-24T02:11:18.597Z,7.50
2017-11-24T02:13:44.528Z,7.63
2017-11-24T02:16:10.482Z,7.33
2017-11-24T02:18:37.128Z,7.00
2017-11-24T02:21:03.138Z,7.20
2017-11-24T02:23:29.785Z,7.00
2017-11-24T02:25:55.719Z,7.77
2017-11-24T02:28:21.642Z,8.83
2017-11-24T02:30:47.578Z,6.77
2017-11-24T02:33:13.484Z,7.30
2017-11-24T02:35:39.418Z,8.43
2017-11-24T02:38:05.325Z,9.03
2017-11-24T02:40:31.260Z,6.80
2017-11-24T02:42:57.211Z,8.50
2017-11-24T02:45:23.201Z,7.90
2017-11-24T02:47:49.096Z,7.70
2017-11-24T02:50:15.079Z,7.37
2017-11-24T02:52:41.050Z,7.50
2017-11-24T02:55:07.011Z,8.57
2017-11-24T02:57:32.924Z,7.50
2017-11-24T02:59:59.619Z,7.13
2017-11-24T03:02:25.565Z,7.73
2017-11-24T03:04:51.502Z,7.20
2017-11-24T03:07:17.461Z,7.80
2017-11-24T03:09:43.410Z,7.00
2017-11-24T03:12:09.344Z,7.80
2017-11-24T03:14:35.275Z,8.33
2017-11-24T03:17:01.227Z,7.90
2017-11-24T03:19:27.234Z,7.17
2017-11-24T03:21:53.176Z,7.20
2017-11-24T03:24:19.105Z,7.70
2017-11-24T03:26:45.021Z,7.83
2017-11-24T03:29:11.685Z,8.27
2017-11-24T03:31:37.593Z,8.50
2017-11-24T03:34:03.509Z,7.40
2017-11-24T03:36:29.447Z,8.03
2017-11-24T03:38:55.369Z,8.23
2017-11-24T03:41:21.269Z,7.80
2017-11-24T03:43:47.925Z,8.10
2017-11-24T03:46:13.868Z,8.00
2017-11-24T03:48:39.779Z,8.17
2017-11-24T03:51:05.847Z,7.77
2017-11-24T03:53:31.793Z,7.33
2017-11-24T03:55:58.458Z,7.20
2017-11-24T03:58:24.375Z,8.43
2017-11-24T04:00:50.323Z,7.97
2017-11-24T04:03:16.245Z,7.90
2017-11-24T04:05:42.181Z,8.30
2017-11-24T04:08:08.101Z,8.60
2017-11-24T04:10:34.060Z,8.10
2017-11-24T04:12:59.973Z,8.07
2017-11-24T04:15:25.912Z,7.20
2017-11-24T04:17:51.846Z,7.73
2017-11-24T04:20:17.760Z,8.10
2017-11-24T04:22:43.692Z,7.73
2017-11-24T04:25:09.600Z,7.63
2017-11-24T04:27:35.557Z,9.10
2017-11-24T04:30:01.487Z,7.80
2017-11-24T04:32:27.420Z,7.63
2017-11-24T04:34:53.352Z,7.80
2017-11-24T04:37:19.285Z,9.30
2017-11-24T04:39:45.945Z,8.20
2017-11-24T04:42:11.865Z,8.03
2017-11-24T04:44:37.823Z,8.10
2017-11-24T04:47:03.774Z,9.30
2017-11-24T04:49:29.681Z,7.90
2017-11-24T04:51:55.578Z,7.40
2017-11-24T04:54:21.492Z,8.07
2017-11-24T04:56:47.405Z,8.77
2017-11-24T04:59:13.364Z,7.80
2017-11-24T05:01:39.289Z,7.63
2017-11-24T05:04:05.322Z,8.70
2017-11-24T05:06:31.248Z,8.27
2017-11-24T05:08:57.170Z,8.17
2017-11-24T05:11:23.145Z,8.17
2017-11-24T05:13:49.288Z,8.13
2017-11-24T05:16:15.241Z,8.03
2017-11-24T05:18:41.140Z,9.20
2017-11-24T05:21:07.128Z,8.07
2017-11-24T05:23:33.065Z,11.23
2017-11-24T05:25:58.961Z,7.80
2017-11-24T05:28:24.856Z,7.70
2017-11-24T05:30:50.788Z,8.30
2017-11-24T05:33:16.713Z,8.17
2017-11-24T05:35:42.628Z,7.83
2017-11-24T05:38:08.593Z,8.30
2017-11-24T05:40:34.508Z,8.07
2017-11-24T05:43:01.429Z,8.10
2017-11-24T05:45:27.395Z,7.70
2017-11-24T05:47:53.311Z,7.93
2017-11-24T05:50:20.077Z,7.90
2017-11-24T05:52:54.378Z,8.03
2017-11-24T05:55:20.373Z,7.07
2017-11-24T05:57:46.285Z,7.60
2017-11-24T06:00:12.310Z,7.80
2017-11-24T06:02:38.282Z,8.23
2017-11-24T06:05:04.215Z,8.30
2017-11-24T06:07:30.156Z,8.17
2017-11-24T06:09:56.061Z,8.53
2017-11-24T06:12:22.065Z,8.60
2017-11-24T06:14:48.047Z,8.03
2017-11-24T06:17:13.977Z,10.03
2017-11-24T06:19:39.917Z,10.00
2017-11-24T06:22:05.872Z,9.97
2017-11-24T06:24:31.789Z,9.50
2017-11-24T06:26:57.760Z,9.07
2017-11-24T06:29:24.484Z,15.30
2017-11-24T06:31:50.410Z,10.27
2017-11-24T06:34:16.328Z,9.70
2017-11-24T06:36:42.916Z,9.97
2017-11-24T06:39:08.974Z,11.43
2017-11-24T06:41:34.900Z,9.50
2017-11-24T06:44:01.048Z,9.03
2017-11-24T06:46:27.085Z,10.03
2017-11-24T06:48:53.032Z,9.00
2017-11-24T06:51:18.972Z,9.27
2017-11-24T06:53:44.903Z,9.37
2017-11-24T06:56:11.720Z,9.30
2017-11-24T06:58:37.649Z,14.70
2017-11-24T07:01:03.623Z,11.90
2017-11-24T07:03:30.323Z,9.97
2017-11-24T07:05:56.300Z,9.13
2017-11-24T07:08:22.262Z,9.20
2017-11-24T07:10:48.436Z,9.13
2017-11-24T07:13:14.442Z,8.83
2017-11-24T07:18:33.496Z,8.20
2017-11-24T07:20:59.417Z,9.00
2017-11-24T07:23:25.331Z,9.03
2017-11-24T07:25:51.305Z,8.60
2017-11-24T07:28:17.245Z,11.30
2017-11-24T07:30:43.188Z,8.30
2017-11-24T07:33:09.089Z,9.87
2017-11-24T07:35:35.040Z,9.23
2017-11-24T07:38:01.021Z,9.77
2017-11-24T07:40:27.692Z,9.20
2017-11-24T07:42:54.393Z,9.17
2017-11-24T07:45:20.317Z,8.47
2017-11-24T07:47:46.856Z,9.93
2017-11-24T07:50:12.919Z,9.53
2017-11-24T07:52:38.862Z,9.00
2017-11-24T07:55:05.534Z,9.60
2017-11-24T07:57:31.511Z,8.73
2017-11-24T07:59:57.446Z,8.30
2017-11-24T08:02:24.103Z,10.33
2017-11-24T08:04:50.889Z,8.13
2017-11-24T08:07:16.794Z,8.63
2017-11-24T08:09:42.723Z,8.37
2017-11-24T08:12:08.652Z,8.60
2017-11-24T08:14:34.582Z,8.63
2017-11-24T08:17:00.490Z,9.40
2017-11-24T08:19:26.459Z,9.33
2017-11-24T08:21:52.371Z,8.83
2017-11-24T08:24:18.344Z,8.40
2017-11-24T08:26:44.273Z,8.63
2017-11-24T08:29:10.287Z,9.90
2017-11-24T08:31:36.267Z,9.00
2017-11-24T08:34:02.270Z,8.73
2017-11-24T08:36:28.204Z,9.17
2017-11-24T08:38:55.028Z,8.10
2017-11-24T08:41:20.949Z,9.20
2017-11-24T08:43:46.867Z,11.80
2017-11-24T08:46:13.704Z,9.10
2017-11-24T08:48:45.871Z,9.30
2017-11-24T08:51:11.832Z,9.50
2017-11-24T08:53:38.551Z,8.80
2017-11-24T08:56:04.548Z,9.10
2017-11-24T08:58:30.460Z,9.33
2017-11-24T09:00:56.407Z,8.70
2017-11-24T09:03:22.329Z,9.00
2017-11-24T09:05:48.418Z,8.20
2017-11-24T09:08:14.460Z,9.80
2017-11-24T09:10:40.494Z,9.50
2017-11-24T09:13:07.153Z,9.10
2017-11-24T09:15:33.081Z,8.77
2017-11-24T09:17:59.000Z,8.90
2017-11-24T09:20:24.941Z,8.53
2017-11-24T09:22:50.891Z,8.50
2017-11-24T09:25:16.829Z,6.80
2017-11-24T09:27:43.586Z,7.67
2017-11-24T09:30:10.485Z,8.27
2017-11-24T09:32:36.399Z,8.00
2017-11-24T09:35:02.324Z,8.47
2017-11-24T09:37:28.269Z,8.07
2017-11-24T09:39:54.194Z,7.30
2017-11-24T09:42:20.149Z,7.90
2017-11-24T09:44:46.097Z,7.70
2017-11-24T09:47:12.085Z,7.90
2017-11-24T09:49:38.004Z,7.73
2017-11-24T09:52:03.921Z,7.40
2017-11-24T09:54:29.853Z,7.13
2017-11-24T09:56:55.859Z,7.17
2017-11-24T09:59:21.808Z,7.57
2017-11-24T10:01:48.499Z,8.10
2017-11-24T10:04:15.156Z,7.50
2017-11-24T10:06:41.183Z,7.63
2017-11-24T10:09:07.145Z,7.30
2017-11-24T10:11:33.069Z,6.80
2017-11-24T10:13:58.987Z,7.10
2017-11-24T10:16:24.953Z,7.30
2017-11-24T10:18:51.698Z,7.20
2017-11-24T10:21:23.701Z,8.07
2017-11-24T10:23:49.615Z,7.80
2017-11-24T10:26:15.605Z,7.57
2017-11-24T10:28:41.544Z,7.50
2017-11-24T10:31:07.476Z,7.33
2017-11-24T10:33:33.458Z,7.70
2017-11-24T10:36:00.571Z,7.80
2017-11-24T10:38:27.187Z,7.20
2017-11-24T10:40:53.108Z,7.50
2017-11-24T10:43:19.097Z,7.13
2017-11-24T10:45:45.034Z,7.33
2017-11-24T10:48:10.982Z,7.53
2017-11-24T10:50:36.930Z,7.13
2017-11-24T10:53:02.888Z,7.10
2017-11-24T10:55:28.819Z,7.93
2017-11-24T10:57:55.565Z,7.80
2017-11-24T11:00:21.550Z,7.17
2017-11-24T11:02:48.277Z,7.13
2017-11-24T11:05:14.188Z,8.43
2017-11-24T11:07:40.133Z,8.27
2017-11-24T11:10:06.125Z,7.37
2017-11-24T11:12:32.043Z,7.73
2017-11-24T11:14:58.003Z,6.80
2017-11-24T11:17:23.991Z,7.23
2017-11-24T11:19:49.924Z,6.60
2017-11-24T11:22:15.900Z,7.00
2017-11-24T11:24:41.820Z,7.00
2017-11-24T11:27:07.737Z,7.27
2017-11-24T11:29:33.661Z,7.50
2017-11-24T11:31:59.608Z,7.37
2017-11-24T11:34:25.525Z,7.33
2017-11-24T11:36:52.154Z,7.63
2017-11-24T11:39:18.090Z,6.60
2017-11-24T11:41:44.045Z,7.90
2017-11-24T11:44:10.747Z,6.97
2017-11-24T11:46:36.688Z,7.20
2017-11-24T11:49:02.628Z,7.80
2017-11-24T11:51:28.544Z,7.90
2017-11-24T11:53:55.270Z,7.57
2017-11-24T11:56:21.212Z,6.90
2017-11-24T11:58:47.196Z,7.10
2017-11-24T12:01:13.269Z,7.67
2017-11-24T12:03:39.317Z,7.63
2017-11-24T12:06:05.442Z,7.50
2017-11-24T12:08:31.375Z,8.27
2017-11-24T12:10:57.290Z,7.70
2017-11-24T12:13:23.240Z,7.70
2017-11-24T12:15:49.197Z,7.10
2017-11-24T12:18:15.147Z,7.57
2017-11-24T12:20:41.234Z,6.80
2017-11-24T12:23:07.232Z,7.13
2017-11-24T12:25:33.963Z,7.23
2017-11-24T12:27:59.908Z,7.67
2017-11-24T12:30:25.940Z,6.60
2017-11-24T12:32:51.915Z,7.40
2017-11-24T12:35:17.857Z,7.17
2017-11-24T12:37:44.589Z,7.77
2017-11-24T12:40:10.543Z,7.67
2017-11-24T12:42:36.471Z,7.07
2017-11-24T12:45:02.405Z,6.93
2017-11-24T12:47:28.330Z,7.47
2017-11-24T12:49:54.282Z,7.37
2017-11-24T12:52:20.393Z,7.40
2017-11-24T12:54:46.340Z,7.50
2017-11-24T12:57:12.337Z,6.83
2017-11-24T12:59:38.384Z,7.00
2017-11-24T13:02:04.386Z,7.00
2017-11-24T13:04:30.327Z,7.87
2017-11-24T13:06:56.404Z,7.53
2017-11-24T13:09:22.332Z,6.83
2017-11-24T13:11:48.407Z,6.77
2017-11-24T13:14:15.870Z,7.40
2017-11-24T13:16:42.589Z,7.60
2017-11-24T13:19:08.561Z,7.17
2017-11-24T13:21:34.487Z,6.90
2017-11-24T13:24:01.281Z,7.07
2017-11-24T13:26:27.208Z,7.13
2017-11-24T13:28:53.859Z,6.90
2017-11-24T13:31:19.785Z,7.20
2017-11-24T13:33:45.705Z,7.23
2017-11-24T13:36:11.613Z,7.87
2017-11-24T13:38:37.545Z,7.40
2017-11-24T13:41:03.488Z,7.03
2017-11-24T13:43:29.440Z,6.50
2017-11-24T13:45:55.385Z,7.37
2017-11-24T13:48:22.070Z,7.80
2017-11-24T13:50:47.983Z,7.03
2017-11-24T13:53:13.939Z,6.90
2017-11-24T13:55:40.400Z,8.20
2017-11-24T13:58:06.368Z,7.90
2017-11-24T14:00:32.351Z,8.23
2017-11-24T14:02:59.044Z,8.63
2017-11-24T14:05:25.041Z,7.47
2017-11-24T14:07:50.965Z,7.27
2017-11-24T14:10:17.007Z,8.00
2017-11-24T14:12:42.959Z,7.83
2017-11-24T14:15:08.938Z,8.87
2017-11-24T14:20:07.665Z,9.67
2017-11-24T14:22:33.560Z,9.30
2017-11-24T14:24:59.517Z,9.10
2017-11-24T14:27:25.420Z,9.13
2017-11-24T14:29:51.421Z,8.63
2017-11-24T14:32:17.391Z,9.10
2017-11-24T14:34:43.452Z,9.17
2017-11-24T14:37:09.407Z,10.10
2017-11-24T14:39:35.335Z,9.80
2017-11-24T14:42:01.259Z,9.60
2017-11-24T14:44:27.266Z,9.30
2017-11-24T14:46:53.212Z,10.00
2017-11-24T14:49:19.143Z,10.00
2017-11-24T14:51:45.303Z,11.30
2017-11-24T14:54:11.293Z,10.87
2017-11-24T14:56:37.994Z,11.33
2017-11-24T14:59:03.923Z,10.03
2017-11-24T15:01:29.954Z,11.70
2017-11-24T15:03:55.856Z,12.07
2017-11-24T15:06:21.878Z,11.97
2017-11-24T15:08:47.854Z,11.10
2017-11-24T15:11:13.780Z,9.73
2017-11-24T15:13:39.732Z,10.60
2017-11-24T15:16:05.788Z,5.33
2017-11-24T15:18:31.788Z,4.50
2017-11-24T15:20:57.740Z,4.20
2017-11-24T15:23:23.703Z,4.30
2017-11-24T15:25:49.709Z,2.53
2017-11-24T15:28:15.677Z,1.70
2017-11-24T15:30:41.606Z,1.90
2017-11-24T15:33:07.525Z,1.90
2017-11-24T15:35:33.469Z,2.03
2017-11-24T15:37:59.525Z,2.53
2017-11-24T15:40:25.444Z,1.90
2017-11-24T15:42:51.467Z,1.83
2017-11-24T15:45:17.380Z,2.13
2017-11-24T15:47:43.328Z,2.53
2017-11-24T15:50:09.269Z,1.80
2017-11-24T15:52:35.266Z,2.30
2017-11-24T15:55:01.184Z,2.53
2017-11-24T15:57:27.195Z,1.90
2017-11-24T15:59:53.109Z,2.40
2017-11-24T16:02:19.073Z,2.40
2017-11-24T16:04:45.085Z,3.50
2017-11-24T16:07:11.083Z,2.70
2017-11-24T16:09:37.036Z,2.80
2017-11-24T16:12:03.132Z,35.87
2017-11-24T16:14:29.152Z,14.30
2017-11-24T16:16:55.101Z,9.70
2017-11-24T16:19:21.098Z,9.17
2017-11-24T16:21:47.165Z,10.17
2017-11-24T16:24:13.081Z,5.83
2017-11-24T16:26:39.021Z,5.03
2017-11-24T16:29:05.737Z,6.13
2017-11-24T16:31:31.695Z,5.10
2017-11-24T16:33:58.455Z,5.30
2017-11-24T16:36:24.456Z,6.23
2017-11-24T16:38:50.387Z,3.10
2017-11-24T16:41:16.340Z,2.67
2017-11-24T16:43:42.299Z,3.37
2017-11-24T16:46:08.239Z,2.90
2017-11-24T16:48:34.916Z,3.57
2017-11-24T16:51:00.967Z,6.10
2017-11-24T16:53:26.896Z,4.10
2017-11-24T16:55:52.852Z,3.43
2017-11-24T16:58:18.796Z,3.97
2017-11-24T17:00:45.583Z,3.90
2017-11-24T17:03:11.511Z,4.10
2017-11-24T17:05:38.165Z,3.50
2017-11-24T17:08:04.105Z,3.93
2017-11-24T17:10:30.089Z,4.10
2017-11-24T17:12:56.054Z,4.10
2017-11-24T17:15:22.032Z,4.43
2017-11-24T17:17:47.945Z,4.63
2017-11-24T17:20:13.863Z,4.53
2017-11-24T17:22:39.790Z,4.93
2017-11-24T17:25:05.704Z,6.00
2017-11-24T17:27:31.653Z,4.97
2017-11-24T17:29:57.637Z,5.77
2017-11-24T17:32:23.596Z,6.70
2017-11-24T17:34:49.589Z,7.17
2017-11-24T17:37:15.514Z,7.53
2017-11-24T17:39:41.440Z,7.00
2017-11-24T17:42:07.414Z,6.30
2017-11-24T17:44:33.368Z,6.30
2017-11-24T17:46:59.317Z,6.40
2017-11-24T17:49:25.232Z,5.80
2017-11-24T17:51:51.165Z,5.80
2017-11-24T17:54:17.116Z,6.90
2017-11-24T17:56:43.056Z,7.30
2017-11-24T17:59:09.062Z,6.30
2017-11-24T18:01:35.040Z,6.60
2017-11-24T18:04:01.765Z,7.27
2017-11-24T18:06:28.398Z,7.07
2017-11-24T18:08:55.140Z,7.40
2017-11-24T18:11:21.825Z,6.40
2017-11-24T18:13:47.827Z,6.57
2017-11-24T18:16:13.913Z,7.60
2017-11-24T18:18:39.893Z,7.53
2017-11-24T18:21:05.853Z,10.37
2017-11-24T18:23:31.824Z,7.27
2017-11-24T18:25:57.772Z,7.00
2017-11-24T18:28:23.673Z,17.70
2017-11-24T18:30:49.629Z,8.67
2017-11-24T18:33:15.563Z,8.87
2017-11-24T18:35:41.481Z,9.00
2017-11-24T18:38:07.516Z,8.77
2017-11-24T18:40:34.180Z,9.53
2017-11-24T18:43:00.153Z,10.23
2017-11-24T18:45:26.097Z,11.77
2017-11-24T18:47:52.062Z,15.47
2017-11-24T18:50:17.984Z,10.73
2017-11-24T18:52:43.956Z,10.33
2017-11-24T18:55:09.881Z,9.93
2017-11-24T18:57:35.819Z,19.27
2017-11-24T19:00:01.760Z,15.20
2017-11-24T19:02:27.730Z,13.87
2017-11-24T19:04:53.684Z,12.13
2017-11-24T19:07:19.618Z,10.93
2017-11-24T19:09:46.825Z,11.43
2017-11-24T19:12:12.769Z,12.40
2017-11-24T19:14:38.751Z,13.33
2017-11-24T19:17:04.704Z,11.80
2017-11-24T19:19:31.391Z,13.90
2017-11-24T19:21:57.346Z,15.63
2017-11-24T19:24:24.284Z,18.20
2017-11-24T19:26:50.215Z,13.50
2017-11-24T19:29:16.184Z,13.37
2017-11-24T19:31:42.081Z,12.90
2017-11-24T19:34:08.013Z,14.33
2017-11-24T19:36:34.683Z,14.23
2017-11-24T19:39:00.716Z,12.63
2017-11-24T19:41:26.695Z,14.13
2017-11-24T19:43:52.607Z,15.00
2017-11-24T19:46:18.618Z,15.13
2017-11-24T19:48:45.272Z,15.73
2017-11-24T19:51:11.216Z,14.83
2017-11-24T19:53:37.150Z,14.23
2017-11-24T19:56:03.126Z,13.60
2017-11-24T19:58:29.055Z,13.70
2017-11-24T20:00:55.050Z,14.33
2017-11-24T20:03:21.782Z,13.60
2017-11-24T20:05:47.720Z,12.73
2017-11-24T20:08:15.308Z,15.50
2017-11-24T20:10:41.262Z,15.10
2017-11-24T20:13:07.199Z,14.87
2017-11-24T20:15:33.225Z,14.83
2017-11-24T20:17:59.185Z,17.47
2017-11-24T20:20:25.167Z,18.77
2017-11-24T20:22:51.097Z,70.13
2017-11-24T20:25:17.771Z,16.93
2017-11-24T20:27:43.707Z,14.90
2017-11-24T20:30:09.703Z,16.20
2017-11-24T20:32:35.647Z,15.93
2017-11-24T20:35:01.604Z,16.40
2017-11-24T20:37:27.500Z,17.33
2017-11-24T20:39:53.476Z,15.00
2017-11-24T20:42:20.177Z,13.80
2017-11-24T20:44:46.131Z,20.40
2017-11-24T20:47:12.081Z,15.90
2017-11-24T20:49:38.176Z,14.43
2017-11-24T20:52:04.897Z,15.23
2017-11-24T20:54:30.841Z,15.87
2017-11-24T20:56:57.515Z,20.90
2017-11-24T20:59:23.412Z,19.10
2017-11-24T21:01:49.420Z,17.60
2017-11-24T21:04:16.133Z,16.87
2017-11-24T21:06:42.066Z,17.87
2017-11-24T21:09:08.865Z,18.07
2017-11-24T21:11:34.841Z,17.20
2017-11-24T21:14:00.762Z,19.33
2017-11-24T21:16:27.464Z,17.80
2017-11-24T21:18:53.411Z,19.03
2017-11-24T21:21:19.398Z,16.90
2017-11-24T21:23:45.315Z,17.70
2017-11-24T21:26:11.285Z,17.20
2017-11-24T21:28:37.216Z,17.87
2017-11-24T21:31:03.178Z,18.40
2017-11-24T21:33:29.104Z,17.90
2017-11-24T21:35:55.052Z,18.70
2017-11-24T21:38:21.722Z,18.13
2017-11-24T21:40:47.632Z,18.03
2017-11-24T21:43:13.604Z,18.60
2017-11-24T21:45:39.570Z,14.90
2017-11-24T21:48:05.548Z,16.77
2017-11-24T21:50:31.525Z,17.47
2017-11-24T21:52:57.501Z,15.73
2017-11-24T21:55:23.475Z,14.20
2017-11-24T21:57:57.187Z,16.47
2017-11-24T22:00:23.559Z,16.90
2017-11-24T22:02:49.513Z,15.63
2017-11-24T22:05:15.456Z,14.43
2017-11-24T22:07:41.404Z,14.30
2017-11-24T22:10:07.381Z,15.63
2017-11-24T22:12:34.102Z,14.70
2017-11-24T22:15:02.000Z,15.20
2017-11-24T22:17:28.901Z,14.60
2017-11-24T22:20:00.041Z,14.63
2017-11-24T22:22:27.486Z,15.40
2017-11-24T22:24:53.473Z,14.60
2017-11-24T22:27:19.441Z,14.47
2017-11-24T22:29:48.649Z,15.27
2017-11-24T22:32:15.326Z,16.10
2017-11-24T22:34:41.261Z,14.47
2017-11-24T22:37:07.172Z,14.83
2017-11-24T22:39:33.104Z,15.17
2017-11-24T22:41:59.013Z,14.67
2017-11-24T22:44:24.980Z,14.67
2017-11-24T22:46:50.921Z,14.97
2017-11-24T22:49:17.616Z,13.00
2017-11-24T22:51:43.546Z,14.90
2017-11-24T22:54:09.500Z,14.67
2017-11-24T22:56:35.497Z,15.50
2017-11-24T22:59:01.438Z,15.03
2017-11-24T23:01:27.368Z,14.73
2017-11-24T23:03:53.349Z,19.30
2017-11-24T23:06:19.297Z,15.60
2017-11-24T23:08:46.041Z,16.83
2017-11-24T23:11:11.947Z,18.80
2017-11-24T23:13:37.887Z,18.70
2017-11-24T23:16:03.796Z,18.10
2017-11-24T23:18:31.109Z,15.80
2017-11-24T23:20:57.069Z,13.80
2017-11-24T23:23:23.753Z,15.00
2017-11-24T23:25:49.701Z,14.43
2017-11-24T23:28:15.655Z,13.87
2017-11-24T23:30:41.668Z,14.53
2017-11-24T23:33:07.800Z,14.40
2017-11-24T23:35:34.485Z,14.30
2017-11-24T23:38:00.935Z,13.63
2017-11-24T23:40:26.888Z,14.27
2017-11-24T23:42:52.811Z,15.50
2017-11-24T23:45:18.712Z,16.50
2017-11-24T23:47:44.619Z,14.40
2017-11-24T23:50:10.529Z,15.90
2017-11-24T23:52:36.472Z,16.63
2017-11-24T23:55:02.601Z,15.20
2017-11-24T23:57:28.529Z,13.47
2017-11-24T23:59:55.232Z,14.60
